Time;durP1;ratioP1;P1;durP2;ratioP2;P2;SDS_P1;SDS_P2;PMS_P1;PMS_P2;Temp;Humidity;BMP_temperature;BMP_pressure;BME280_temperature;BME280_humidity;BME280_pressure;Samples;Min_cycle;Max_cycle;Signal;HPM_P1;HPM_P2
2022/12/25 00:00:11;;;;;;;73.20;22.77;;;5.80;99.90;;;;;;4822020;29;20053;-69
2022/12/25 00:02:37;;;;;;;94.60;23.08;;;5.80;99.90;;;;;;4830951;29;20132;-68
2022/12/25 00:05:05;;;;;;;78.68;22.88;;;5.80;99.90;;;;;;4840083;29;20168;-68
2022/12/25 00:07:31;;;;;;;72.75;22.88;;;5.80;99.90;;;;;;4838789;29;20516;-68
2022/12/25 00:09:57;;;;;;;81.82;24.33;;;5.80;99.90;;;;;;4837469;29;20148;-69
2022/12/25 00:12:23;;;;;;;82.15;23.00;;;5.80;99.90;;;;;;4825949;29;20504;-69
2022/12/25 00:14:49;;;;;;;78.50;23.20;;;5.80;99.90;;;;;;4824551;29;20072;-69
2022/12/25 00:17:15;;;;;;;71.20;21.98;;;5.80;99.90;;;;;;4832249;29;20045;-68
2022/12/25 00:19:40;;;;;;;72.65;22.58;;;5.80;99.90;;;;;;4825299;29;20060;-69
2022/12/25 00:22:07;;;;;;;72.13;20.75;;;5.80;99.90;;;;;;4823560;29;20803;-69
2022/12/25 00:24:32;;;;;;;59.83;20.85;;;5.80;99.90;;;;;;4815299;29;20098;-68
2022/12/25 00:26:58;;;;;;;79.90;21.42;;;5.70;99.90;;;;;;4825893;29;20045;-67
2022/12/25 00:29:24;;;;;;;71.80;21.83;;;5.70;99.90;;;;;;4826519;29;20138;-68
2022/12/25 00:31:50;;;;;;;72.25;21.60;;;5.80;99.90;;;;;;4828541;29;20057;-68
2022/12/25 00:34:15;;;;;;;97.28;21.92;;;5.70;99.90;;;;;;4826700;29;20050;-68
2022/12/25 00:36:41;;;;;;;68.13;21.48;;;5.70;99.90;;;;;;4830226;29;20060;-69
2022/12/25 00:39:07;;;;;;;69.60;21.65;;;5.70;99.90;;;;;;4833264;29;20058;-68
2022/12/25 00:44:17;;;;;;;78.43;21.30;;;5.60;99.90;;;;;;4826481;29;20048;-69
2022/12/25 00:46:43;;;;;;;71.10;21.52;;;5.60;99.90;;;;;;4833063;29;20046;-69
2022/12/25 00:49:10;;;;;;;75.03;20.95;;;5.60;99.90;;;;;;4812266;29;20089;-69
2022/12/25 00:51:36;;;;;;;86.35;21.98;;;5.60;99.90;;;;;;4841363;29;20055;-68
2022/12/25 00:54:01;;;;;;;85.25;22.98;;;5.60;99.90;;;;;;4827288;29;20049;-69
2022/12/25 00:56:28;;;;;;;77.28;23.10;;;5.60;99.90;;;;;;4824568;29;20114;-69
2022/12/25 00:58:54;;;;;;;76.43;23.02;;;5.70;99.90;;;;;;4823327;29;20060;-69
2022/12/25 01:01:20;;;;;;;77.88;23.35;;;5.70;99.90;;;;;;4822039;29;20041;-68
2022/12/25 01:03:46;;;;;;;79.93;24.15;;;5.70;99.90;;;;;;4826910;29;20053;-69
2022/12/25 01:06:12;;;;;;;72.03;23.35;;;5.60;99.90;;;;;;4829279;29;20051;-69
2022/12/25 01:10:21;;;;;;;84.78;22.90;;;5.70;99.90;;;;;;4828132;29;20057;-71
2022/12/25 01:11:27;;;;;;;78.93;23.42;;;5.70;99.90;;;;;;4825799;29;20068;-68
2022/12/25 01:13:53;;;;;;;88.13;24.77;;;5.70;99.90;;;;;;4816215;29;20595;-68
2022/12/25 01:16:20;;;;;;;79.68;23.35;;;5.70;99.90;;;;;;4830437;29;20056;-68
2022/12/25 01:18:45;;;;;;;104.45;25.08;;;5.70;99.90;;;;;;4806686;29;20116;-69
2022/12/25 01:21:19;;;;;;;101.00;25.25;;;5.70;99.90;;;;;;4825101;29;20109;-68
2022/12/25 01:23:46;;;;;;;114.43;26.45;;;5.80;99.90;;;;;;4806594;29;20064;-69
2022/12/25 01:26:14;;;;;;;103.32;27.17;;;5.80;99.90;;;;;;4824227;29;20065;-68
2022/12/25 01:28:40;;;;;;;103.53;26.83;;;5.80;99.90;;;;;;4821539;29;20114;-69
2022/12/25 01:31:11;;;;;;;111.55;25.70;;;5.80;99.90;;;;;;4827614;29;20892;-69
2022/12/25 01:33:38;;;;;;;122.90;27.90;;;5.80;99.90;;;;;;4841501;29;20046;-69
2022/12/25 01:36:15;;;;;;;130.45;27.83;;;5.90;99.90;;;;;;4827042;29;20057;-67
2022/12/25 01:38:41;;;;;;;116.43;27.73;;;5.80;99.90;;;;;;4834201;29;20049;-68
2022/12/25 01:41:06;;;;;;;115.28;27.35;;;5.90;99.90;;;;;;4831165;29;20081;-67
2022/12/25 01:43:33;;;;;;;111.80;26.83;;;5.90;99.90;;;;;;4805985;29;20133;-69
2022/12/25 01:45:59;;;;;;;120.65;27.63;;;5.90;99.90;;;;;;4825400;29;20206;-68
2022/12/25 01:48:38;;;;;;;110.78;27.50;;;6.00;99.90;;;;;;4831985;29;20140;-68
2022/12/25 01:51:18;;;;;;;137.15;27.80;;;5.90;99.90;;;;;;4826702;29;20489;-69
2022/12/25 01:53:44;;;;;;;105.18;27.95;;;6.00;99.90;;;;;;4831242;29;20053;-68
2022/12/25 01:56:10;;;;;;;125.93;28.35;;;5.90;99.90;;;;;;4822048;29;20117;-69
2022/12/25 01:58:36;;;;;;;139.73;28.38;;;6.00;99.90;;;;;;4808046;29;20128;-68
2022/12/25 02:01:02;;;;;;;145.90;30.48;;;6.00;99.90;;;;;;4826191;29;20052;-68
2022/12/25 02:03:28;;;;;;;131.27;29.13;;;6.00;99.90;;;;;;4837654;29;20056;-68
2022/12/25 02:05:55;;;;;;;115.68;28.50;;;6.00;99.90;;;;;;4828245;29;20168;-68
2022/12/25 02:08:22;;;;;;;113.47;27.27;;;6.10;99.90;;;;;;4806984;29;20065;-68
2022/12/25 02:10:47;;;;;;;119.30;28.77;;;6.10;99.90;;;;;;4818675;29;21203;-69
2022/12/25 02:13:16;;;;;;;139.40;31.52;;;6.10;99.90;;;;;;4802265;29;20167;-68
2022/12/25 02:16:21;;;;;;;112.45;29.10;;;6.10;99.90;;;;;;4801427;29;20050;-68
2022/12/25 02:18:57;;;;;;;127.43;30.00;;;6.20;99.90;;;;;;4807394;29;20054;-69
2022/12/25 02:22:15;;;;;;;107.65;29.17;;;6.20;99.90;;;;;;4815078;29;20051;-69
2022/12/25 02:25:18;;;;;;;115.18;29.05;;;6.30;99.90;;;;;;4756427;29;20061;-69
2022/12/25 02:28:05;;;;;;;110.55;30.25;;;6.30;99.90;;;;;;4744404;29;20059;-69
2022/12/25 02:30:37;;;;;;;109.85;28.67;;;6.30;99.90;;;;;;4799675;29;20538;-69
2022/12/25 02:35:55;;;;;;;105.63;29.77;;;6.40;99.90;;;;;;4819833;29;20061;-69
2022/12/25 02:38:35;;;;;;;108.65;30.50;;;6.50;99.90;;;;;;4817979;29;20175;-69
2022/12/25 02:41:07;;;;;;;120.38;31.10;;;6.50;99.90;;;;;;4806299;29;20050;-69
2022/12/25 03:08:50;;;;;;;92.82;30.15;;;6.80;99.90;;;;;;4832681;29;20156;-69
2022/12/25 03:11:31;;;;;;;102.90;31.80;;;6.80;99.90;;;;;;4837174;29;20057;-69
2022/12/25 03:16:55;;;;;;;114.93;31.90;;;6.90;99.90;;;;;;4827856;29;20055;-67
2022/12/25 03:27:48;;;;;;;82.50;28.20;;;6.90;99.90;;;;;;4824121;29;20049;-68
2022/12/25 03:33:28;;;;;;;77.18;27.83;;;7.00;99.90;;;;;;4823127;29;20131;-68
2022/12/25 03:36:19;;;;;;;76.63;28.55;;;6.90;99.90;;;;;;4821547;29;20054;-68
2022/12/25 04:37:49;;;;;;;91.47;29.27;;;7.20;99.90;;;;;;4803558;29;20054;-69
2022/12/25 04:40:15;;;;;;;108.75;32.35;;;7.20;99.90;;;;;;4787305;29;20061;-69
2022/12/25 04:42:41;;;;;;;107.22;32.55;;;7.20;99.90;;;;;;4794939;29;20619;-68
2022/12/25 04:45:07;;;;;;;110.50;32.38;;;7.30;99.90;;;;;;4803463;29;20111;-67
2022/12/25 04:47:33;;;;;;;131.57;33.50;;;7.30;99.90;;;;;;4790371;29;20396;-69
2022/12/25 04:49:59;;;;;;;106.97;33.30;;;7.30;99.90;;;;;;4805595;29;20052;-69
2022/12/25 04:52:24;;;;;;;124.38;33.53;;;7.30;99.90;;;;;;4789344;29;20074;-69
2022/12/25 04:54:50;;;;;;;102.45;32.30;;;7.30;99.90;;;;;;4808599;29;20136;-68
2022/12/25 04:57:16;;;;;;;120.20;33.03;;;7.40;99.90;;;;;;4803085;29;20053;-68
2022/12/25 04:59:42;;;;;;;112.82;34.17;;;7.40;99.90;;;;;;4798999;29;20186;-69
2022/12/25 05:02:07;;;;;;;110.47;32.25;;;7.40;99.90;;;;;;4799951;29;20061;-68
2022/12/25 05:04:33;;;;;;;138.48;33.25;;;7.40;99.90;;;;;;4804130;29;20054;-68
2022/12/25 05:06:59;;;;;;;117.72;32.85;;;7.40;99.90;;;;;;4796075;29;20068;-68
2022/12/25 05:09:25;;;;;;;122.50;32.90;;;7.40;99.90;;;;;;4809197;29;20066;-69
2022/12/25 05:11:51;;;;;;;120.38;31.60;;;7.50;99.90;;;;;;4826476;29;20050;-69
2022/12/25 05:14:17;;;;;;;119.32;32.25;;;7.50;99.90;;;;;;4822381;29;20513;-67
2022/12/25 05:16:43;;;;;;;100.70;31.38;;;7.50;99.90;;;;;;4817276;29;20057;-69
2022/12/25 05:19:09;;;;;;;112.75;31.13;;;7.60;99.90;;;;;;4803060;29;20053;-68
2022/12/25 05:21:35;;;;;;;100.45;30.80;;;7.60;99.90;;;;;;4827202;29;20110;-69
2022/12/25 05:24:00;;;;;;;123.40;31.95;;;7.60;99.90;;;;;;4820791;29;20054;-69
2022/12/25 05:26:26;;;;;;;101.43;29.40;;;7.60;99.90;;;;;;4823498;29;20054;-68
2022/12/25 05:28:53;;;;;;;91.50;29.38;;;7.60;99.90;;;;;;4820987;29;20057;-68
2022/12/25 05:31:19;;;;;;;98.38;29.35;;;7.60;99.90;;;;;;4825797;29;20596;-68
2022/12/25 05:33:48;;;;;;;104.47;29.50;;;7.60;99.90;;;;;;4820189;29;20112;-68
2022/12/25 05:36:14;;;;;;;93.90;29.13;;;7.70;99.90;;;;;;4821584;29;20062;-68
2022/12/25 05:38:40;;;;;;;94.75;28.70;;;7.70;99.90;;;;;;4819422;29;20045;-69
2022/12/25 05:41:05;;;;;;;98.90;29.88;;;7.70;99.90;;;;;;4814852;29;20046;-69
2022/12/25 05:43:31;;;;;;;89.60;28.83;;;7.70;99.90;;;;;;4819760;29;20060;-69
2022/12/25 05:45:57;;;;;;;95.18;29.15;;;7.70;99.90;;;;;;4827538;29;20062;-68
2022/12/25 05:48:23;;;;;;;89.75;29.15;;;7.70;99.90;;;;;;4821520;29;20113;-69
2022/12/25 05:50:49;;;;;;;93.80;28.92;;;7.70;99.90;;;;;;4812505;29;20058;-69
2022/12/25 05:53:15;;;;;;;103.72;29.60;;;7.80;99.90;;;;;;4806536;29;20057;-69
2022/12/25 05:55:42;;;;;;;97.70;28.45;;;7.80;99.90;;;;;;4827817;29;20102;-68
2022/12/25 05:58:09;;;;;;;93.63;28.08;;;7.80;99.90;;;;;;4834782;29;20054;-68
2022/12/25 06:00:36;;;;;;;90.00;28.48;;;7.80;99.90;;;;;;4834494;29;20565;-69
2022/12/25 06:03:02;;;;;;;92.80;29.67;;;7.80;99.90;;;;;;4820752;29;20115;-69
2022/12/25 06:05:28;;;;;;;103.28;30.27;;;7.80;99.90;;;;;;4823671;29;20050;-67
2022/12/25 06:07:54;;;;;;;98.20;30.55;;;7.80;99.90;;;;;;4822947;29;20122;-69
2022/12/25 06:10:20;;;;;;;102.93;30.85;;;7.80;99.90;;;;;;4819051;29;20096;-69
2022/12/25 06:12:46;;;;;;;105.90;30.98;;;7.80;99.90;;;;;;4823809;29;20121;-67
2022/12/25 06:15:12;;;;;;;106.05;31.08;;;7.80;99.90;;;;;;4832182;29;20161;-69
2022/12/25 06:17:38;;;;;;;118.28;31.73;;;7.80;99.90;;;;;;4829218;29;20049;-68
2022/12/25 06:20:04;;;;;;;117.13;31.67;;;7.80;99.90;;;;;;4821350;29;20054;-68
2022/12/25 06:22:32;;;;;;;95.50;30.58;;;7.90;99.90;;;;;;4828971;29;20054;-69
2022/12/25 06:24:58;;;;;;;111.28;33.70;;;7.80;99.90;;;;;;4821479;29;20054;-68
2022/12/25 06:27:25;;;;;;;115.50;32.53;;;7.90;99.90;;;;;;4810812;29;20060;-68
2022/12/25 06:29:51;;;;;;;106.18;31.98;;;7.90;99.90;;;;;;4822690;29;21424;-68
2022/12/25 06:32:17;;;;;;;110.55;32.58;;;7.90;99.90;;;;;;4831695;29;20046;-69
2022/12/25 06:34:43;;;;;;;123.47;33.90;;;7.90;99.90;;;;;;4838366;29;20624;-68
2022/12/25 06:37:08;;;;;;;108.65;32.55;;;7.90;99.90;;;;;;4824861;29;20081;-68
2022/12/25 06:39:34;;;;;;;118.72;33.33;;;7.90;99.90;;;;;;4832609;29;20058;-69
2022/12/25 06:42:00;;;;;;;118.95;33.67;;;7.90;99.90;;;;;;4811231;29;20130;-68
2022/12/25 06:44:26;;;;;;;119.68;33.13;;;8.00;99.90;;;;;;4837677;29;20054;-68
2022/12/25 06:46:52;;;;;;;114.75;32.70;;;7.90;99.90;;;;;;4825531;29;20951;-68
2022/12/25 06:49:18;;;;;;;116.68;34.08;;;7.90;99.90;;;;;;4833984;29;20052;-68
2022/12/25 06:51:44;;;;;;;127.18;34.45;;;7.90;99.90;;;;;;4833084;29;20149;-67
2022/12/25 06:54:10;;;;;;;116.15;32.85;;;7.90;99.90;;;;;;4838345;29;20141;-69
2022/12/25 06:56:36;;;;;;;111.57;33.10;;;8.00;99.90;;;;;;4828619;29;20621;-68
2022/12/25 06:59:05;;;;;;;127.97;33.83;;;8.00;99.90;;;;;;4826772;29;20057;-69
2022/12/25 07:01:42;;;;;;;106.82;31.10;;;8.00;99.90;;;;;;4831128;29;20049;-69
2022/12/25 07:04:19;;;;;;;114.22;33.47;;;7.90;99.90;;;;;;4822210;29;20054;-69
2022/12/25 07:06:45;;;;;;;110.53;32.65;;;8.00;99.90;;;;;;4832560;29;20060;-68
2022/12/25 07:09:11;;;;;;;124.97;34.25;;;8.00;99.90;;;;;;4823755;29;20452;-69
2022/12/25 07:11:37;;;;;;;118.97;33.75;;;8.00;99.90;;;;;;4813008;29;20049;-69
2022/12/25 07:14:03;;;;;;;120.57;33.42;;;8.00;99.90;;;;;;4823064;29;20128;-68
2022/12/25 07:16:28;;;;;;;111.10;34.30;;;8.00;99.90;;;;;;4825148;29;20056;-69
2022/12/25 07:18:54;;;;;;;98.88;33.22;;;8.00;99.90;;;;;;4831153;29;20113;-69
2022/12/25 07:21:20;;;;;;;118.55;33.92;;;8.00;99.90;;;;;;4824365;29;20042;-68
2022/12/25 07:23:48;;;;;;;93.82;31.88;;;8.00;99.90;;;;;;4817291;29;20041;-69
2022/12/25 07:26:16;;;;;;;101.72;32.45;;;8.00;99.90;;;;;;4832144;29;20048;-68
2022/12/25 07:28:42;;;;;;;98.10;33.45;;;8.00;99.90;;;;;;4834504;29;20110;-69
2022/12/25 07:31:13;;;;;;;104.07;34.30;;;8.00;99.90;;;;;;4811535;29;20046;-69
2022/12/25 07:33:39;;;;;;;108.60;34.10;;;8.10;99.90;;;;;;4806347;29;20054;-69
2022/12/25 07:36:06;;;;;;;98.65;31.98;;;8.00;99.90;;;;;;4821467;29;20053;-69
2022/12/25 07:38:32;;;;;;;113.90;32.53;;;8.10;99.90;;;;;;4832663;29;20056;-68
2022/12/25 07:40:58;;;;;;;92.53;32.38;;;8.10;99.90;;;;;;4831505;29;20136;-68
2022/12/25 07:43:24;;;;;;;101.85;31.92;;;8.10;99.90;;;;;;4814523;29;20084;-68
2022/12/25 07:45:58;;;;;;;103.50;33.78;;;8.10;99.90;;;;;;4831484;29;20049;-67
2022/12/25 07:48:25;;;;;;;89.70;30.75;;;8.10;99.90;;;;;;4827456;29;20054;-69
2022/12/25 07:51:02;;;;;;;95.55;29.88;;;8.10;99.90;;;;;;4830226;29;20061;-69
2022/12/25 07:53:28;;;;;;;91.38;32.40;;;8.10;99.90;;;;;;4824823;29;20575;-69
2022/12/25 07:56:03;;;;;;;82.47;30.73;;;8.10;99.90;;;;;;4828445;29;20053;-69
2022/12/25 07:58:29;;;;;;;91.07;30.90;;;8.10;99.90;;;;;;4829889;29;20057;-68
2022/12/25 08:01:10;;;;;;;81.80;30.45;;;8.10;99.90;;;;;;4820610;29;20093;-69
2022/12/25 08:03:36;;;;;;;80.63;28.52;;;8.10;99.90;;;;;;4841559;29;20080;-69
2022/12/25 08:06:04;;;;;;;85.55;29.88;;;8.10;99.90;;;;;;4824905;29;20053;-68
2022/12/25 08:08:31;;;;;;;80.18;30.05;;;8.20;99.90;;;;;;4814461;29;20086;-69
2022/12/25 08:10:57;;;;;;;72.43;28.17;;;8.10;99.90;;;;;;4808038;29;20540;-68
2022/12/25 08:13:22;;;;;;;75.22;28.42;;;8.20;99.90;;;;;;4806372;29;20051;-69
2022/12/25 08:15:49;;;;;;;77.90;29.08;;;8.20;99.90;;;;;;4808793;29;20091;-69
2022/12/25 08:18:14;;;;;;;71.80;28.05;;;8.20;99.90;;;;;;4809109;29;20093;-68
2022/12/25 08:20:40;;;;;;;72.18;28.23;;;8.20;99.90;;;;;;4805934;29;20038;-69
2022/12/25 08:23:06;;;;;;;71.43;27.10;;;8.20;99.90;;;;;;4797558;29;20080;-68
2022/12/25 08:25:32;;;;;;;68.30;26.63;;;8.20;99.90;;;;;;4804537;29;20188;-69
2022/12/25 08:28:01;;;;;;;72.50;26.90;;;8.20;99.90;;;;;;4805225;29;20058;-68
2022/12/25 08:30:27;;;;;;;68.45;27.05;;;8.30;99.90;;;;;;4813161;29;20093;-69
2022/12/25 08:32:53;;;;;;;63.25;25.23;;;8.30;99.90;;;;;;4812088;29;20058;-68
2022/12/25 08:35:18;;;;;;;56.58;24.80;;;8.30;99.90;;;;;;4820730;29;20402;-68
2022/12/25 08:37:44;;;;;;;63.17;24.23;;;8.30;99.90;;;;;;4781170;29;20425;-69
2022/12/25 08:40:10;;;;;;;60.25;23.80;;;8.30;99.90;;;;;;4810614;29;20112;-69
2022/12/25 08:42:37;;;;;;;50.60;23.52;;;8.30;99.90;;;;;;4811289;29;20240;-69
2022/12/25 08:45:03;;;;;;;49.95;22.65;;;8.30;99.90;;;;;;4794718;29;20069;-68
2022/12/25 08:47:29;;;;;;;50.80;21.77;;;8.30;99.90;;;;;;4810669;29;20445;-70
2022/12/25 08:49:54;;;;;;;50.13;22.73;;;8.40;99.90;;;;;;4792556;29;20144;-69
2022/12/25 08:52:20;;;;;;;46.30;21.33;;;8.40;99.90;;;;;;4808910;29;20789;-69
2022/12/25 08:54:46;;;;;;;52.42;22.20;;;8.40;99.90;;;;;;4799536;29;20054;-68
2022/12/25 08:57:12;;;;;;;47.20;22.02;;;8.40;99.90;;;;;;4785961;29;20512;-68
2022/12/25 08:59:38;;;;;;;46.38;20.30;;;8.40;99.90;;;;;;4764145;29;20133;-69
2022/12/25 09:02:04;;;;;;;39.35;19.90;;;8.40;99.90;;;;;;4805484;29;20050;-69
2022/12/25 09:04:29;;;;;;;47.40;20.23;;;8.40;99.90;;;;;;4811231;29;20042;-69
2022/12/25 09:06:55;;;;;;;43.25;20.85;;;8.40;99.90;;;;;;4800852;29;20121;-68
2022/12/25 09:09:26;;;;;;;46.25;19.98;;;8.40;99.90;;;;;;4834893;29;20081;-69
2022/12/25 09:11:52;;;;;;;43.67;20.88;;;8.40;99.90;;;;;;4828953;29;20057;-69
2022/12/25 09:14:17;;;;;;;43.47;20.13;;;8.40;99.90;;;;;;4831998;29;20053;-68
2022/12/25 09:16:43;;;;;;;46.17;20.27;;;8.40;99.90;;;;;;4829725;29;20128;-69
2022/12/25 09:19:09;;;;;;;51.78;19.77;;;8.40;99.90;;;;;;4831867;29;20048;-69
2022/12/25 09:21:35;;;;;;;40.08;18.50;;;8.40;99.90;;;;;;4830321;29;20078;-67
2022/12/25 09:24:05;;;;;;;39.72;19.63;;;8.40;99.90;;;;;;4828374;29;20093;-69
2022/12/25 09:26:31;;;;;;;38.05;18.55;;;8.40;99.90;;;;;;4830844;29;20062;-69
2022/12/25 09:28:57;;;;;;;43.30;18.02;;;8.40;99.90;;;;;;4827996;29;20053;-69
2022/12/25 09:31:23;;;;;;;40.25;18.17;;;8.50;99.90;;;;;;4819524;29;20053;-68
2022/12/25 09:33:49;;;;;;;42.60;17.17;;;8.50;99.90;;;;;;4833593;29;20057;-69
2022/12/25 09:36:16;;;;;;;32.83;16.88;;;8.50;99.90;;;;;;4833673;29;20054;-69
2022/12/25 09:38:42;;;;;;;43.15;17.23;;;8.50;99.90;;;;;;4829785;29;20104;-69
2022/12/25 09:41:20;;;;;;;32.40;16.38;;;8.50;99.90;;;;;;4829185;29;20046;-69
2022/12/25 09:44:07;;;;;;;36.88;17.23;;;8.50;99.90;;;;;;4838362;29;20097;-69
2022/12/25 09:46:55;;;;;;;36.38;16.75;;;8.50;99.90;;;;;;4829353;29;20153;-69
2022/12/25 09:49:44;;;;;;;28.55;15.82;;;8.50;99.90;;;;;;4833565;29;20048;-69
2022/12/25 09:52:22;;;;;;;33.60;15.05;;;8.50;99.90;;;;;;4831032;29;20580;-69
2022/12/25 09:55:17;;;;;;;29.52;15.02;;;8.50;99.90;;;;;;4839117;29;20103;-68
2022/12/25 09:57:43;;;;;;;34.95;15.77;;;8.50;99.90;;;;;;4813750;29;20057;-68
2022/12/25 10:00:18;;;;;;;31.50;14.55;;;8.50;99.90;;;;;;4825740;29;20397;-68
2022/12/25 10:02:49;;;;;;;31.17;14.85;;;8.50;99.90;;;;;;4828373;29;20136;-69
2022/12/25 10:05:24;;;;;;;32.28;14.88;;;8.50;99.90;;;;;;4820454;29;20054;-69
2022/12/25 10:08:10;;;;;;;27.60;14.18;;;8.50;99.90;;;;;;4827580;29;20069;-69
2022/12/25 10:10:45;;;;;;;37.72;13.73;;;8.50;99.90;;;;;;4824860;29;20138;-69
2022/12/25 10:13:29;;;;;;;28.67;13.95;;;8.50;99.90;;;;;;4828055;29;20085;-69
2022/12/25 10:16:09;;;;;;;32.05;13.80;;;8.50;99.90;;;;;;4832179;29;20056;-69
2022/12/25 10:18:43;;;;;;;31.23;13.95;;;8.50;99.90;;;;;;4824118;29;20078;-69
2022/12/25 10:21:13;;;;;;;25.35;13.10;;;8.50;99.90;;;;;;4831045;29;20077;-69
2022/12/25 10:23:58;;;;;;;29.50;13.63;;;8.50;99.90;;;;;;4841216;29;20354;-69
2022/12/25 10:26:25;;;;;;;30.45;13.50;;;8.60;99.90;;;;;;4825594;29;20053;-69
2022/12/25 10:29:18;;;;;;;24.58;12.88;;;8.50;99.90;;;;;;4822612;29;20292;-69
2022/12/25 10:31:54;;;;;;;25.30;12.45;;;8.60;99.90;;;;;;4832299;29;20042;-69
2022/12/25 10:34:20;;;;;;;23.40;12.75;;;8.50;99.90;;;;;;4815488;29;20896;-67
2022/12/25 10:36:48;;;;;;;21.55;12.32;;;8.60;99.90;;;;;;4831513;29;20053;-69
2022/12/25 10:39:23;;;;;;;27.85;12.23;;;8.60;99.90;;;;;;4828028;29;20050;-69
2022/12/25 10:42:07;;;;;;;26.70;12.52;;;8.50;99.90;;;;;;4820832;29;20058;-69
2022/12/25 10:44:33;;;;;;;29.25;12.25;;;8.50;99.90;;;;;;4831253;29;20129;-69
2022/12/25 10:47:01;;;;;;;22.88;12.57;;;8.60;99.90;;;;;;4831486;29;20042;-68
2022/12/25 10:49:38;;;;;;;23.63;12.60;;;8.60;99.90;;;;;;4830457;29;20054;-69
2022/12/25 10:52:22;;;;;;;27.90;12.02;;;8.60;99.90;;;;;;4834983;29;20529;-69
2022/12/25 10:54:48;;;;;;;23.10;12.80;;;8.60;99.90;;;;;;4842742;29;20053;-69
2022/12/25 10:57:17;;;;;;;26.13;11.88;;;8.50;99.90;;;;;;4833094;29;20519;-69
2022/12/25 10:59:45;;;;;;;24.27;12.10;;;8.60;99.90;;;;;;4826537;29;20053;-69
2022/12/25 11:02:33;;;;;;;22.33;11.25;;;8.60;99.90;;;;;;4837288;29;20049;-69
2022/12/25 11:05:06;;;;;;;26.80;11.50;;;8.60;99.90;;;;;;4813042;29;20180;-68
2022/12/25 11:07:37;;;;;;;21.65;11.70;;;8.60;99.90;;;;;;4823178;29;20092;-67
2022/12/25 11:10:33;;;;;;;24.38;12.23;;;8.60;99.90;;;;;;4833813;29;20055;-68
2022/12/25 11:13:00;;;;;;;20.83;10.93;;;8.70;99.90;;;;;;4840492;29;20517;-69
2022/12/25 11:15:39;;;;;;;23.25;10.73;;;8.70;99.90;;;;;;4841954;29;20402;-69
2022/12/25 11:18:23;;;;;;;23.77;11.23;;;8.70;99.90;;;;;;4838677;29;20374;-69
2022/12/25 11:20:51;;;;;;;20.83;10.95;;;8.80;99.90;;;;;;4824983;29;20064;-68
2022/12/25 11:23:21;;;;;;;19.10;10.55;;;8.70;99.90;;;;;;4822760;29;20368;-69
2022/12/25 11:26:01;;;;;;;18.60;10.18;;;8.80;99.90;;;;;;4821627;29;20507;-69
2022/12/25 11:28:29;;;;;;;19.05;10.02;;;8.80;99.90;;;;;;4831733;29;20053;-69
2022/12/25 11:31:21;;;;;;;19.80;9.70;;;8.80;99.90;;;;;;4831554;29;20136;-69
2022/12/25 11:33:54;;;;;;;23.25;10.02;;;8.80;99.90;;;;;;4838432;29;20128;-69
2022/12/25 11:36:31;;;;;;;17.38;9.80;;;8.90;99.90;;;;;;4837340;29;20181;-69
2022/12/25 11:39:13;;;;;;;18.17;9.32;;;8.90;99.90;;;;;;4844130;29;20057;-69
2022/12/25 11:41:40;;;;;;;18.30;9.43;;;8.90;99.90;;;;;;4839513;29;20114;-67
2022/12/25 11:44:27;;;;;;;18.75;9.35;;;8.90;99.90;;;;;;4826875;29;20405;-69
2022/12/25 11:46:55;;;;;;;16.35;9.15;;;8.90;99.90;;;;;;4830272;29;20068;-69
2022/12/25 11:49:22;;;;;;;17.00;9.18;;;8.90;99.90;;;;;;4842310;29;20049;-69
2022/12/25 11:51:52;;;;;;;19.63;8.50;;;8.80;99.90;;;;;;4828399;29;20050;-69
2022/12/25 11:54:23;;;;;;;18.02;8.73;;;8.80;99.90;;;;;;4839730;29;20038;-69
2022/12/25 11:56:50;;;;;;;18.90;8.70;;;8.90;99.90;;;;;;4824931;29;20045;-68
2022/12/25 11:59:26;;;;;;;17.88;9.10;;;8.90;99.90;;;;;;4824179;29;20531;-68
2022/12/25 12:02:18;;;;;;;16.30;8.75;;;8.90;99.90;;;;;;4839765;29;20110;-68
2022/12/25 12:04:48;;;;;;;16.00;8.10;;;8.90;99.90;;;;;;4831691;29;20049;-69
2022/12/25 12:07:20;;;;;;;18.00;8.27;;;8.80;99.90;;;;;;4831564;29;20081;-67
2022/12/25 12:10:10;;;;;;;18.88;8.55;;;8.90;99.90;;;;;;4829710;29;20067;-69
2022/12/25 12:13:09;;;;;;;17.02;8.50;;;8.90;99.90;;;;;;4830814;29;20065;-69
2022/12/25 12:15:47;;;;;;;12.98;7.65;;;8.90;99.90;;;;;;4840779;29;22958;-69
2022/12/25 12:18:29;;;;;;;19.90;8.30;;;8.80;99.90;;;;;;4831145;29;20136;-69
2022/12/25 12:21:23;;;;;;;16.52;8.38;;;8.80;99.90;;;;;;4829681;29;20085;-69
2022/12/25 12:24:15;;;;;;;18.05;7.95;;;8.80;99.90;;;;;;4830969;29;20053;-69
2022/12/25 12:26:44;;;;;;;16.02;7.53;;;8.80;99.90;;;;;;4824873;29;20050;-69
2022/12/25 12:29:24;;;;;;;14.02;8.40;;;8.80;99.90;;;;;;4840341;29;22512;-69
2022/12/25 12:31:51;;;;;;;15.70;8.65;;;8.80;99.90;;;;;;4821464;29;20054;-69
2022/12/25 12:34:41;;;;;;;28.20;9.43;;;8.80;99.90;;;;;;4824387;29;20050;-67
2022/12/25 12:37:24;;;;;;;16.00;8.57;;;8.80;99.90;;;;;;4840729;29;20058;-69
2022/12/25 12:39:53;;;;;;;16.45;8.23;;;8.80;99.90;;;;;;4842101;29;20125;-69
2022/12/25 12:42:39;;;;;;;18.77;8.30;;;8.90;99.90;;;;;;4824899;29;20045;-69
2022/12/25 12:45:15;;;;;;;18.48;8.13;;;8.90;99.90;;;;;;4828531;29;20046;-68
2022/12/25 12:47:45;;;;;;;17.30;8.18;;;8.90;99.90;;;;;;4826399;29;20057;-68
2022/12/25 12:50:31;;;;;;;17.08;8.63;;;8.90;99.90;;;;;;4842197;29;20053;-69
2022/12/25 12:52:59;;;;;;;24.58;8.43;;;8.90;99.90;;;;;;4839171;29;20046;-68
2022/12/25 12:55:29;;;;;;;17.17;8.43;;;8.90;99.90;;;;;;4828491;29;20050;-69
2022/12/25 12:58:04;;;;;;;14.38;8.43;;;8.90;99.90;;;;;;4836329;29;20046;-69
2022/12/25 13:00:51;;;;;;;16.67;8.55;;;9.00;99.90;;;;;;4824755;29;20404;-69
2022/12/25 13:03:22;;;;;;;15.02;8.55;;;9.00;99.90;;;;;;4826669;29;20164;-69
2022/12/25 13:06:07;;;;;;;16.48;8.85;;;9.00;99.90;;;;;;4833089;29;20053;-68
2022/12/25 13:08:54;;;;;;;17.92;8.82;;;9.00;99.90;;;;;;4829535;29;20046;-69
2022/12/25 13:11:23;;;;;;;18.15;8.88;;;9.00;99.90;;;;;;4827505;29;20449;-69
2022/12/25 13:13:52;;;;;;;19.85;9.13;;;9.00;99.90;;;;;;4838937;29;20042;-67
2022/12/25 13:16:25;;;;;;;17.30;8.43;;;9.00;99.90;;;;;;4823910;29;20050;-69
2022/12/25 13:18:52;;;;;;;21.33;9.35;;;9.00;99.90;;;;;;4833273;29;20520;-68
2022/12/25 13:21:25;;;;;;;22.02;8.95;;;9.00;99.90;;;;;;4834313;29;20109;-69
2022/12/25 13:23:59;;;;;;;18.98;8.65;;;9.10;99.90;;;;;;4828035;29;20397;-69
2022/12/25 13:26:26;;;;;;;17.25;9.38;;;9.10;99.90;;;;;;4828105;29;20508;-69
2022/12/25 13:28:54;;;;;;;16.13;8.25;;;9.00;99.90;;;;;;4839884;29;20057;-69
2022/12/25 13:31:28;;;;;;;17.08;8.45;;;9.00;99.90;;;;;;4836813;29;20064;-68
2022/12/25 13:33:59;;;;;;;11.10;8.23;;;9.10;99.90;;;;;;4826776;29;20046;-69
2022/12/25 13:36:27;;;;;;;14.55;7.57;;;9.10;99.90;;;;;;4837332;29;20065;-69
2022/12/25 13:38:56;;;;;;;15.85;8.00;;;9.00;99.90;;;;;;4829220;29;20050;-68
2022/12/25 13:44:22;;;;;;;17.10;8.68;;;9.00;99.90;;;;;;4831658;29;20542;-68
2022/12/25 13:46:48;;;;;;;16.33;8.50;;;9.00;99.90;;;;;;4829809;29;21009;-69
2022/12/25 13:49:16;;;;;;;15.27;8.00;;;9.00;99.90;;;;;;4816845;29;20057;-69
2022/12/25 13:51:43;;;;;;;17.63;8.05;;;9.00;99.90;;;;;;4837181;29;20114;-68
2022/12/25 13:54:12;;;;;;;14.98;7.88;;;9.00;99.90;;;;;;4827467;29;20046;-67
2022/12/25 13:56:46;;;;;;;14.18;8.50;;;9.00;99.90;;;;;;4838674;29;20061;-69
2022/12/25 13:59:21;;;;;;;14.05;7.85;;;9.00;99.90;;;;;;4839386;29;20065;-68
2022/12/25 14:01:48;;;;;;;15.60;7.68;;;9.00;99.90;;;;;;4828217;29;20062;-69
2022/12/25 14:04:17;;;;;;;13.93;8.05;;;9.00;99.90;;;;;;4821211;29;20057;-69
2022/12/25 14:06:43;;;;;;;16.52;8.30;;;9.00;99.90;;;;;;4830724;29;20081;-69
2022/12/25 14:09:11;;;;;;;17.52;8.57;;;9.00;99.90;;;;;;4821855;29;20124;-68
2022/12/25 14:11:38;;;;;;;18.02;8.48;;;9.10;99.90;;;;;;4835466;29;20057;-69
2022/12/25 14:14:14;;;;;;;19.45;8.60;;;9.00;99.90;;;;;;4835892;29;20124;-69
2022/12/25 14:16:42;;;;;;;15.68;8.25;;;9.00;99.90;;;;;;4836439;29;20057;-69
2022/12/25 14:19:24;;;;;;;16.33;8.50;;;9.00;99.90;;;;;;4824306;29;20057;-69
2022/12/25 14:21:58;;;;;;;14.37;8.43;;;9.10;99.90;;;;;;4838745;29;20054;-69
2022/12/25 14:24:26;;;;;;;15.45;9.80;;;9.10;99.90;;;;;;4822901;29;20124;-68
2022/12/25 14:27:00;;;;;;;16.88;9.52;;;9.10;99.90;;;;;;4841261;29;20397;-69
2022/12/25 14:29:33;;;;;;;20.05;9.60;;;9.10;99.90;;;;;;4833819;29;20053;-69
2022/12/25 14:32:03;;;;;;;16.63;10.60;;;9.10;99.90;;;;;;4820797;29;20449;-69
2022/12/25 14:34:31;;;;;;;17.83;9.60;;;9.10;99.90;;;;;;4830999;29;20493;-69
2022/12/25 14:36:58;;;;;;;20.42;9.85;;;9.00;99.90;;;;;;4839744;29;20393;-68
2022/12/25 14:39:36;;;;;;;23.30;10.93;;;9.10;99.90;;;;;;4827879;29;20046;-69